sensor_id;sensor_type;location;lat;lon;timestamp;P1;durP1;ratioP1;P2;durP2;ratioP2
10715;SDS011;5409;42.620;23.316;2023-11-19T00:00:06;2.80;;;2.60;;
10715;SDS011;5409;42.620;23.316;2023-11-19T00:02:36;3.10;;;2.42;;
10715;SDS011;5409;42.620;23.316;2023-11-19T00:05:03;2.80;;;2.60;;
10715;SDS011;5409;42.620;23.316;2023-11-19T00:07:32;2.70;;;2.30;;
10715;SDS011;5409;42.620;23.316;2023-11-19T00:10:01;2.28;;;2.15;;
10715;SDS011;5409;42.620;23.316;2023-11-19T00:12:36;2.28;;;2.17;;
10715;SDS011;5409;42.620;23.316;2023-11-19T00:15:04;3.92;;;1.85;;
10715;SDS011;5409;42.620;23.316;2023-11-19T00:17:31;2.15;;;1.95;;
10715;SDS011;5409;42.620;23.316;2023-11-19T00:19:58;3.10;;;1.98;;
10715;SDS011;5409;42.620;23.316;2023-11-19T00:22:25;2.40;;;2.20;;
10715;SDS011;5409;42.620;23.316;2023-11-19T00:24:51;2.10;;;1.95;;
10715;SDS011;5409;42.620;23.316;2023-11-19T00:27:19;2.00;;;1.90;;
10715;SDS011;5409;42.620;23.316;2023-11-19T00:29:46;2.40;;;1.92;;
10715;SDS011;5409;42.620;23.316;2023-11-19T00:32:12;2.10;;;1.90;;
10715;SDS011;5409;42.620;23.316;2023-11-19T00:34:40;1.83;;;1.70;;
10715;SDS011;5409;42.620;23.316;2023-11-19T00:37:07;1.83;;;1.73;;
10715;SDS011;5409;42.620;23.316;2023-11-19T00:39:34;1.80;;;1.70;;
10715;SDS011;5409;42.620;23.316;2023-11-19T00:42:00;2.33;;;2.13;;
10715;SDS011;5409;42.620;23.316;2023-11-19T00:44:28;2.33;;;2.13;;
10715;SDS011;5409;42.620;23.316;2023-11-19T00:46:55;2.10;;;1.90;;
10715;SDS011;5409;42.620;23.316;2023-11-19T00:49:21;2.42;;;2.10;;
10715;SDS011;5409;42.620;23.316;2023-11-19T00:51:48;2.10;;;1.90;;
10715;SDS011;5409;42.620;23.316;2023-11-19T00:54:15;2.13;;;2.03;;
10715;SDS011;5409;42.620;23.316;2023-11-19T00:56:42;2.50;;;2.30;;
10715;SDS011;5409;42.620;23.316;2023-11-19T00:59:09;2.03;;;1.90;;
10715;SDS011;5409;42.620;23.316;2023-11-19T01:01:37;2.50;;;2.30;;
10715;SDS011;5409;42.620;23.316;2023-11-19T01:04:05;2.20;;;2.00;;
10715;SDS011;5409;42.620;23.316;2023-11-19T01:06:32;2.22;;;2.03;;
10715;SDS011;5409;42.620;23.316;2023-11-19T01:08:59;3.03;;;1.90;;
10715;SDS011;5409;42.620;23.316;2023-11-19T01:11:25;2.45;;;2.25;;
10715;SDS011;5409;42.620;23.316;2023-11-19T01:13:53;2.60;;;2.40;;
10715;SDS011;5409;42.620;23.316;2023-11-19T01:16:20;2.38;;;2.17;;
10715;SDS011;5409;42.620;23.316;2023-11-19T01:18:48;2.63;;;2.30;;
10715;SDS011;5409;42.620;23.316;2023-11-19T01:21:15;1.83;;;1.73;;
10715;SDS011;5409;42.620;23.316;2023-11-19T01:23:42;2.33;;;2.10;;
10715;SDS011;5409;42.620;23.316;2023-11-19T01:26:09;2.70;;;2.50;;
10715;SDS011;5409;42.620;23.316;2023-11-19T01:28:37;2.28;;;2.17;;
10715;SDS011;5409;42.620;23.316;2023-11-19T01:31:04;2.28;;;2.08;;
10715;SDS011;5409;42.620;23.316;2023-11-19T01:33:33;3.13;;;2.10;;
10715;SDS011;5409;42.620;23.316;2023-11-19T01:36:03;2.33;;;2.00;;
10715;SDS011;5409;42.620;23.316;2023-11-19T01:38:30;2.35;;;2.13;;
10715;SDS011;5409;42.620;23.316;2023-11-19T01:40:57;2.55;;;2.08;;
10715;SDS011;5409;42.620;23.316;2023-11-19T01:43:33;2.53;;;2.33;;
10715;SDS011;5409;42.620;23.316;2023-11-19T01:46:00;2.03;;;1.88;;
10715;SDS011;5409;42.620;23.316;2023-11-19T01:48:28;2.30;;;1.90;;
10715;SDS011;5409;42.620;23.316;2023-11-19T01:50:55;2.47;;;2.25;;
10715;SDS011;5409;42.620;23.316;2023-11-19T01:53:24;2.20;;;2.00;;
10715;SDS011;5409;42.620;23.316;2023-11-19T01:55:51;2.30;;;2.10;;
10715;SDS011;5409;42.620;23.316;2023-11-19T01:58:18;2.10;;;2.00;;
10715;SDS011;5409;42.620;23.316;2023-11-19T02:00:45;2.00;;;1.90;;
10715;SDS011;5409;42.620;23.316;2023-11-19T02:03:13;1.90;;;1.80;;
10715;SDS011;5409;42.620;23.316;2023-11-19T02:05:39;2.00;;;1.90;;
10715;SDS011;5409;42.620;23.316;2023-11-19T02:08:06;2.53;;;2.00;;
10715;SDS011;5409;42.620;23.316;2023-11-19T02:10:34;2.15;;;1.95;;
10715;SDS011;5409;42.620;23.316;2023-11-19T02:13:01;2.30;;;2.10;;
10715;SDS011;5409;42.620;23.316;2023-11-19T02:15:30;2.10;;;1.90;;
10715;SDS011;5409;42.620;23.316;2023-11-19T02:17:57;2.00;;;1.80;;
10715;SDS011;5409;42.620;23.316;2023-11-19T02:20:43;2.17;;;2.08;;
10715;SDS011;5409;42.620;23.316;2023-11-19T02:23:09;2.25;;;2.05;;
10715;SDS011;5409;42.620;23.316;2023-11-19T02:25:37;2.47;;;1.88;;
10715;SDS011;5409;42.620;23.316;2023-11-19T02:28:07;2.55;;;2.08;;
10715;SDS011;5409;42.620;23.316;2023-11-19T02:30:37;2.00;;;1.90;;
10715;SDS011;5409;42.620;23.316;2023-11-19T02:33:03;2.10;;;1.90;;
10715;SDS011;5409;42.620;23.316;2023-11-19T02:35:32;2.30;;;2.05;;
10715;SDS011;5409;42.620;23.316;2023-11-19T02:37:59;2.00;;;1.90;;
10715;SDS011;5409;42.620;23.316;2023-11-19T02:40:28;2.00;;;1.90;;
10715;SDS011;5409;42.620;23.316;2023-11-19T02:42:55;1.90;;;1.77;;
10715;SDS011;5409;42.620;23.316;2023-11-19T02:45:24;2.15;;;2.00;;
10715;SDS011;5409;42.620;23.316;2023-11-19T02:47:52;1.98;;;1.88;;
10715;SDS011;5409;42.620;23.316;2023-11-19T02:50:20;2.22;;;1.73;;
10715;SDS011;5409;42.620;23.316;2023-11-19T02:52:51;2.58;;;1.80;;
10715;SDS011;5409;42.620;23.316;2023-11-19T02:55:18;2.30;;;2.10;;
10715;SDS011;5409;42.620;23.316;2023-11-19T02:57:45;2.10;;;2.00;;
10715;SDS011;5409;42.620;23.316;2023-11-19T03:00:14;1.80;;;1.70;;
10715;SDS011;5409;42.620;23.316;2023-11-19T03:02:43;2.28;;;1.75;;
10715;SDS011;5409;42.620;23.316;2023-11-19T03:05:11;1.80;;;1.70;;
10715;SDS011;5409;42.620;23.316;2023-11-19T03:07:40;1.80;;;1.70;;
10715;SDS011;5409;42.620;23.316;2023-11-19T03:10:08;2.20;;;2.00;;
10715;SDS011;5409;42.620;23.316;2023-11-19T03:12:37;1.70;;;1.60;;
10715;SDS011;5409;42.620;23.316;2023-11-19T03:15:04;2.00;;;1.80;;
10715;SDS011;5409;42.620;23.316;2023-11-19T03:17:32;1.98;;;1.85;;
10715;SDS011;5409;42.620;23.316;2023-11-19T03:20:00;1.80;;;1.70;;
10715;SDS011;5409;42.620;23.316;2023-11-19T03:22:27;1.77;;;1.67;;
10715;SDS011;5409;42.620;23.316;2023-11-19T03:24:53;1.90;;;1.80;;
10715;SDS011;5409;42.620;23.316;2023-11-19T03:27:20;1.75;;;1.65;;
10715;SDS011;5409;42.620;23.316;2023-11-19T03:29:47;1.83;;;1.60;;
10715;SDS011;5409;42.620;23.316;2023-11-19T03:32:13;2.15;;;2.05;;
10715;SDS011;5409;42.620;23.316;2023-11-19T03:34:40;1.60;;;1.50;;
10715;SDS011;5409;42.620;23.316;2023-11-19T03:37:08;2.15;;;1.73;;
10715;SDS011;5409;42.620;23.316;2023-11-19T03:39:35;3.33;;;2.03;;
10715;SDS011;5409;42.620;23.316;2023-11-19T03:42:02;1.90;;;1.75;;
10715;SDS011;5409;42.620;23.316;2023-11-19T03:44:29;1.98;;;1.88;;
10715;SDS011;5409;42.620;23.316;2023-11-19T03:46:56;2.30;;;1.63;;
10715;SDS011;5409;42.620;23.316;2023-11-19T03:49:22;2.38;;;2.03;;
10715;SDS011;5409;42.620;23.316;2023-11-19T03:51:50;2.78;;;1.95;;
10715;SDS011;5409;42.620;23.316;2023-11-19T03:54:18;2.30;;;2.10;;
10715;SDS011;5409;42.620;23.316;2023-11-19T03:56:45;1.95;;;1.80;;
10715;SDS011;5409;42.620;23.316;2023-11-19T03:59:12;2.00;;;1.90;;
10715;SDS011;5409;42.620;23.316;2023-11-19T04:01:40;2.40;;;2.20;;
10715;SDS011;5409;42.620;23.316;2023-11-19T04:04:07;2.75;;;1.92;;
10715;SDS011;5409;42.620;23.316;2023-11-19T04:06:33;2.05;;;1.90;;
10715;SDS011;5409;42.620;23.316;2023-11-19T04:09:01;2.15;;;1.73;;
10715;SDS011;5409;42.620;23.316;2023-11-19T04:11:29;2.15;;;1.95;;
10715;SDS011;5409;42.620;23.316;2023-11-19T04:13:55;2.35;;;1.95;;
10715;SDS011;5409;42.620;23.316;2023-11-19T04:16:25;2.50;;;2.30;;
10715;SDS011;5409;42.620;23.316;2023-11-19T04:18:54;2.30;;;2.20;;
10715;SDS011;5409;42.620;23.316;2023-11-19T04:21:20;2.35;;;2.15;;
10715;SDS011;5409;42.620;23.316;2023-11-19T04:23:48;2.45;;;2.25;;
10715;SDS011;5409;42.620;23.316;2023-11-19T04:26:14;2.17;;;1.98;;
10715;SDS011;5409;42.620;23.316;2023-11-19T04:28:43;2.55;;;2.35;;
10715;SDS011;5409;42.620;23.316;2023-11-19T04:31:09;2.30;;;2.10;;
10715;SDS011;5409;42.620;23.316;2023-11-19T04:33:36;2.15;;;2.05;;
10715;SDS011;5409;42.620;23.316;2023-11-19T04:36:03;2.45;;;1.90;;
10715;SDS011;5409;42.620;23.316;2023-11-19T04:38:30;2.75;;;2.33;;
10715;SDS011;5409;42.620;23.316;2023-11-19T04:40:57;2.75;;;2.10;;
10715;SDS011;5409;42.620;23.316;2023-11-19T04:43:23;2.28;;;2.08;;
10715;SDS011;5409;42.620;23.316;2023-11-19T04:45:52;3.00;;;2.00;;
10715;SDS011;5409;42.620;23.316;2023-11-19T04:48:18;2.05;;;1.95;;
10715;SDS011;5409;42.620;23.316;2023-11-19T04:50:45;1.70;;;1.60;;
10715;SDS011;5409;42.620;23.316;2023-11-19T04:53:12;3.15;;;1.90;;
10715;SDS011;5409;42.620;23.316;2023-11-19T04:55:40;1.90;;;1.80;;
10715;SDS011;5409;42.620;23.316;2023-11-19T04:58:07;2.25;;;2.05;;
10715;SDS011;5409;42.620;23.316;2023-11-19T05:00:34;2.00;;;1.80;;
10715;SDS011;5409;42.620;23.316;2023-11-19T05:03:02;2.20;;;2.00;;
10715;SDS011;5409;42.620;23.316;2023-11-19T05:05:29;2.30;;;2.10;;
10715;SDS011;5409;42.620;23.316;2023-11-19T05:07:55;2.38;;;2.17;;
10715;SDS011;5409;42.620;23.316;2023-11-19T05:10:22;2.10;;;1.90;;
10715;SDS011;5409;42.620;23.316;2023-11-19T05:12:50;2.15;;;1.92;;
10715;SDS011;5409;42.620;23.316;2023-11-19T05:15:16;2.00;;;1.90;;
10715;SDS011;5409;42.620;23.316;2023-11-19T05:17:43;2.28;;;2.08;;
10715;SDS011;5409;42.620;23.316;2023-11-19T05:20:11;2.47;;;2.20;;
10715;SDS011;5409;42.620;23.316;2023-11-19T05:22:39;1.90;;;1.80;;
10715;SDS011;5409;42.620;23.316;2023-11-19T05:25:07;2.00;;;1.90;;
10715;SDS011;5409;42.620;23.316;2023-11-19T05:27:34;1.83;;;1.70;;
10715;SDS011;5409;42.620;23.316;2023-11-19T05:30:01;1.90;;;1.70;;
10715;SDS011;5409;42.620;23.316;2023-11-19T05:32:28;2.20;;;2.10;;
10715;SDS011;5409;42.620;23.316;2023-11-19T05:34:54;2.30;;;1.90;;
10715;SDS011;5409;42.620;23.316;2023-11-19T05:37:22;2.42;;;2.22;;
10715;SDS011;5409;42.620;23.316;2023-11-19T05:39:50;2.03;;;1.92;;
10715;SDS011;5409;42.620;23.316;2023-11-19T05:42:17;1.52;;;1.42;;
10715;SDS011;5409;42.620;23.316;2023-11-19T05:44:44;2.10;;;1.90;;
10715;SDS011;5409;42.620;23.316;2023-11-19T05:47:11;2.22;;;2.03;;
10715;SDS011;5409;42.620;23.316;2023-11-19T05:49:38;2.38;;;2.17;;
10715;SDS011;5409;42.620;23.316;2023-11-19T05:52:04;2.20;;;2.00;;
10715;SDS011;5409;42.620;23.316;2023-11-19T05:54:34;2.38;;;2.10;;
10715;SDS011;5409;42.620;23.316;2023-11-19T05:57:03;1.92;;;1.83;;
10715;SDS011;5409;42.620;23.316;2023-11-19T05:59:30;2.50;;;2.30;;
10715;SDS011;5409;42.620;23.316;2023-11-19T06:01:58;2.45;;;2.10;;
10715;SDS011;5409;42.620;23.316;2023-11-19T06:04:25;2.22;;;2.08;;
10715;SDS011;5409;42.620;23.316;2023-11-19T06:06:52;2.20;;;2.03;;
10715;SDS011;5409;42.620;23.316;2023-11-19T06:09:20;2.05;;;1.95;;
10715;SDS011;5409;42.620;23.316;2023-11-19T06:11:49;2.22;;;1.90;;
10715;SDS011;5409;42.620;23.316;2023-11-19T06:14:17;2.25;;;2.05;;
10715;SDS011;5409;42.620;23.316;2023-11-19T06:16:44;2.03;;;1.92;;
10715;SDS011;5409;42.620;23.316;2023-11-19T06:19:11;2.60;;;2.40;;
10715;SDS011;5409;42.620;23.316;2023-11-19T06:21:38;4.70;;;2.20;;
10715;SDS011;5409;42.620;23.316;2023-11-19T06:24:06;2.08;;;1.90;;
10715;SDS011;5409;42.620;23.316;2023-11-19T06:26:34;2.33;;;2.10;;
10715;SDS011;5409;42.620;23.316;2023-11-19T06:29:02;2.70;;;2.30;;
10715;SDS011;5409;42.620;23.316;2023-11-19T06:31:29;3.90;;;2.17;;
10715;SDS011;5409;42.620;23.316;2023-11-19T06:33:56;3.47;;;2.00;;
10715;SDS011;5409;42.620;23.316;2023-11-19T06:36:23;2.60;;;2.40;;
10715;SDS011;5409;42.620;23.316;2023-11-19T06:38:50;2.72;;;2.53;;
10715;SDS011;5409;42.620;23.316;2023-11-19T06:41:16;2.53;;;2.30;;
10715;SDS011;5409;42.620;23.316;2023-11-19T06:43:43;2.65;;;2.00;;
10715;SDS011;5409;42.620;23.316;2023-11-19T06:46:17;3.22;;;2.15;;
10715;SDS011;5409;42.620;23.316;2023-11-19T06:48:45;2.33;;;2.05;;
10715;SDS011;5409;42.620;23.316;2023-11-19T06:51:11;2.38;;;2.17;;
10715;SDS011;5409;42.620;23.316;2023-11-19T06:53:38;2.20;;;1.95;;
10715;SDS011;5409;42.620;23.316;2023-11-19T06:56:06;2.65;;;2.20;;
10715;SDS011;5409;42.620;23.316;2023-11-19T06:58:43;1.90;;;1.75;;
10715;SDS011;5409;42.620;23.316;2023-11-19T07:01:09;2.53;;;2.33;;
10715;SDS011;5409;42.620;23.316;2023-11-19T07:03:37;3.20;;;2.50;;
10715;SDS011;5409;42.620;23.316;2023-11-19T07:06:04;2.28;;;2.10;;
10715;SDS011;5409;42.620;23.316;2023-11-19T07:08:32;2.35;;;2.15;;
10715;SDS011;5409;42.620;23.316;2023-11-19T07:10:59;2.30;;;2.10;;
10715;SDS011;5409;42.620;23.316;2023-11-19T07:13:26;2.60;;;2.33;;
10715;SDS011;5409;42.620;23.316;2023-11-19T07:15:53;2.40;;;2.20;;
10715;SDS011;5409;42.620;23.316;2023-11-19T07:18:20;3.08;;;2.28;;
10715;SDS011;5409;42.620;23.316;2023-11-19T07:20:48;2.38;;;2.17;;
10715;SDS011;5409;42.620;23.316;2023-11-19T07:23:15;2.33;;;2.13;;
10715;SDS011;5409;42.620;23.316;2023-11-19T07:25:42;2.95;;;2.42;;
10715;SDS011;5409;42.620;23.316;2023-11-19T07:28:10;2.60;;;2.40;;
10715;SDS011;5409;42.620;23.316;2023-11-19T07:30:37;2.78;;;2.33;;
10715;SDS011;5409;42.620;23.316;2023-11-19T07:33:04;3.00;;;2.55;;
10715;SDS011;5409;42.620;23.316;2023-11-19T07:35:31;3.42;;;2.40;;
10715;SDS011;5409;42.620;23.316;2023-11-19T07:37:59;3.08;;;2.40;;
10715;SDS011;5409;42.620;23.316;2023-11-19T07:40:26;2.40;;;2.17;;
10715;SDS011;5409;42.620;23.316;2023-11-19T07:42:52;2.38;;;2.15;;
10715;SDS011;5409;42.620;23.316;2023-11-19T07:45:19;2.53;;;2.10;;
10715;SDS011;5409;42.620;23.316;2023-11-19T07:47:46;2.78;;;2.55;;
10715;SDS011;5409;42.620;23.316;2023-11-19T07:50:12;3.80;;;2.25;;
10715;SDS011;5409;42.620;23.316;2023-11-19T07:52:39;2.70;;;2.50;;
10715;SDS011;5409;42.620;23.316;2023-11-19T07:55:08;2.63;;;2.10;;
10715;SDS011;5409;42.620;23.316;2023-11-19T07:57:35;2.65;;;2.45;;
10715;SDS011;5409;42.620;23.316;2023-11-19T08:00:01;3.30;;;2.72;;
10715;SDS011;5409;42.620;23.316;2023-11-19T08:02:29;2.88;;;2.58;;
10715;SDS011;5409;42.620;23.316;2023-11-19T08:04:55;3.60;;;2.60;;
10715;SDS011;5409;42.620;23.316;2023-11-19T08:07:22;2.55;;;2.35;;
10715;SDS011;5409;42.620;23.316;2023-11-19T08:09:49;2.25;;;2.05;;
10715;SDS011;5409;42.620;23.316;2023-11-19T08:12:19;2.97;;;2.55;;
10715;SDS011;5409;42.620;23.316;2023-11-19T08:14:45;2.28;;;2.13;;
10715;SDS011;5409;42.620;23.316;2023-11-19T08:17:12;2.55;;;2.35;;
10715;SDS011;5409;42.620;23.316;2023-11-19T08:19:39;2.67;;;2.47;;
10715;SDS011;5409;42.620;23.316;2023-11-19T08:22:05;3.53;;;3.17;;
10715;SDS011;5409;42.620;23.316;2023-11-19T08:24:34;3.90;;;3.53;;
10715;SDS011;5409;42.620;23.316;2023-11-19T08:27:01;3.70;;;2.90;;
10715;SDS011;5409;42.620;23.316;2023-11-19T08:29:30;5.18;;;3.35;;
10715;SDS011;5409;42.620;23.316;2023-11-19T08:31:56;3.33;;;3.03;;
10715;SDS011;5409;42.620;23.316;2023-11-19T08:34:23;3.10;;;2.80;;
10715;SDS011;5409;42.620;23.316;2023-11-19T08:36:51;2.63;;;2.42;;
10715;SDS011;5409;42.620;23.316;2023-11-19T08:39:18;2.72;;;2.53;;
10715;SDS011;5409;42.620;23.316;2023-11-19T08:41:46;3.10;;;2.90;;
10715;SDS011;5409;42.620;23.316;2023-11-19T08:44:12;3.58;;;2.60;;
10715;SDS011;5409;42.620;23.316;2023-11-19T08:46:47;3.00;;;2.65;;
10715;SDS011;5409;42.620;23.316;2023-11-19T08:49:14;2.83;;;2.60;;
10715;SDS011;5409;42.620;23.316;2023-11-19T08:51:40;3.60;;;2.90;;
10715;SDS011;5409;42.620;23.316;2023-11-19T08:54:07;3.85;;;2.42;;
10715;SDS011;5409;42.620;23.316;2023-11-19T08:56:34;3.30;;;3.00;;
10715;SDS011;5409;42.620;23.316;2023-11-19T08:59:01;3.17;;;2.88;;
10715;SDS011;5409;42.620;23.316;2023-11-19T09:01:27;3.38;;;3.08;;
10715;SDS011;5409;42.620;23.316;2023-11-19T09:03:56;4.43;;;3.00;;
10715;SDS011;5409;42.620;23.316;2023-11-19T09:06:23;3.58;;;2.75;;
10715;SDS011;5409;42.620;23.316;2023-11-19T09:08:49;3.15;;;2.85;;
10715;SDS011;5409;42.620;23.316;2023-11-19T09:11:16;2.72;;;2.50;;
10715;SDS011;5409;42.620;23.316;2023-11-19T09:13:43;3.30;;;3.00;;
10715;SDS011;5409;42.620;23.316;2023-11-19T09:16:11;3.08;;;2.78;;
10715;SDS011;5409;42.620;23.316;2023-11-19T09:18:37;2.90;;;2.70;;
10715;SDS011;5409;42.620;23.316;2023-11-19T09:21:06;2.72;;;2.50;;
10715;SDS011;5409;42.620;23.316;2023-11-19T09:23:32;3.72;;;2.80;;
10715;SDS011;5409;42.620;23.316;2023-11-19T09:26:04;2.97;;;2.70;;
10715;SDS011;5409;42.620;23.316;2023-11-19T09:28:31;3.15;;;2.70;;
10715;SDS011;5409;42.620;23.316;2023-11-19T09:30:58;3.55;;;2.97;;
10715;SDS011;5409;42.620;23.316;2023-11-19T09:33:25;3.00;;;2.80;;
10715;SDS011;5409;42.620;23.316;2023-11-19T09:35:51;2.75;;;2.55;;
10715;SDS011;5409;42.620;23.316;2023-11-19T09:38:19;3.10;;;2.80;;
10715;SDS011;5409;42.620;23.316;2023-11-19T09:40:46;3.42;;;2.75;;
10715;SDS011;5409;42.620;23.316;2023-11-19T09:43:13;3.22;;;2.90;;
10715;SDS011;5409;42.620;23.316;2023-11-19T09:45:44;2.92;;;2.63;;
10715;SDS011;5409;42.620;23.316;2023-11-19T09:48:16;3.00;;;2.70;;
10715;SDS011;5409;42.620;23.316;2023-11-19T09:50:43;2.78;;;2.58;;
10715;SDS011;5409;42.620;23.316;2023-11-19T09:53:10;4.20;;;3.17;;
10715;SDS011;5409;42.620;23.316;2023-11-19T09:55:38;3.85;;;3.42;;
10715;SDS011;5409;42.620;23.316;2023-11-19T09:58:06;3.95;;;3.00;;
10715;SDS011;5409;42.620;23.316;2023-11-19T10:00:34;5.97;;;3.38;;
10715;SDS011;5409;42.620;23.316;2023-11-19T10:03:00;3.42;;;3.08;;
10715;SDS011;5409;42.620;23.316;2023-11-19T10:05:30;3.53;;;3.17;;
10715;SDS011;5409;42.620;23.316;2023-11-19T10:07:57;4.32;;;3.33;;
10715;SDS011;5409;42.620;23.316;2023-11-19T10:10:24;4.15;;;3.47;;
10715;SDS011;5409;42.620;23.316;2023-11-19T10:12:52;3.55;;;3.22;;
10715;SDS011;5409;42.620;23.316;2023-11-19T10:15:20;4.03;;;3.30;;
10715;SDS011;5409;42.620;23.316;2023-11-19T10:17:48;3.42;;;3.13;;
10715;SDS011;5409;42.620;23.316;2023-11-19T10:20:15;4.00;;;3.60;;
10715;SDS011;5409;42.620;23.316;2023-11-19T10:22:41;4.88;;;2.90;;
10715;SDS011;5409;42.620;23.316;2023-11-19T10:25:20;3.20;;;2.90;;
10715;SDS011;5409;42.620;23.316;2023-11-19T10:27:48;4.28;;;3.00;;
10715;SDS011;5409;42.620;23.316;2023-11-19T10:30:18;2.80;;;2.60;;
10715;SDS011;5409;42.620;23.316;2023-11-19T10:32:50;4.70;;;2.90;;
10715;SDS011;5409;42.620;23.316;2023-11-19T10:35:29;2.92;;;2.63;;
10715;SDS011;5409;42.620;23.316;2023-11-19T10:37:55;2.88;;;2.50;;
10715;SDS011;5409;42.620;23.316;2023-11-19T10:40:25;2.60;;;2.40;;
10715;SDS011;5409;42.620;23.316;2023-11-19T10:43:04;2.88;;;2.50;;
10715;SDS011;5409;42.620;23.316;2023-11-19T10:45:34;2.70;;;2.50;;
10715;SDS011;5409;42.620;23.316;2023-11-19T10:48:01;2.33;;;2.13;;
10715;SDS011;5409;42.620;23.316;2023-11-19T10:50:29;2.90;;;2.70;;
10715;SDS011;5409;42.620;23.316;2023-11-19T10:52:56;2.67;;;2.47;;
10715;SDS011;5409;42.620;23.316;2023-11-19T10:55:26;2.88;;;2.22;;
10715;SDS011;5409;42.620;23.316;2023-11-19T10:57:55;3.35;;;2.80;;
10715;SDS011;5409;42.620;23.316;2023-11-19T11:00:24;3.33;;;2.67;;
10715;SDS011;5409;42.620;23.316;2023-11-19T11:02:55;2.53;;;2.33;;
10715;SDS011;5409;42.620;23.316;2023-11-19T11:05:26;2.83;;;2.20;;
10715;SDS011;5409;42.620;23.316;2023-11-19T11:07:55;2.72;;;2.30;;
10715;SDS011;5409;42.620;23.316;2023-11-19T11:10:22;2.85;;;2.30;;
10715;SDS011;5409;42.620;23.316;2023-11-19T11:12:52;2.50;;;2.30;;
10715;SDS011;5409;42.620;23.316;2023-11-19T11:15:24;2.38;;;2.00;;
10715;SDS011;5409;42.620;23.316;2023-11-19T11:17:56;2.38;;;2.17;;
10715;SDS011;5409;42.620;23.316;2023-11-19T11:20:26;2.42;;;2.25;;
10715;SDS011;5409;42.620;23.316;2023-11-19T11:22:57;2.75;;;2.55;;
10715;SDS011;5409;42.620;23.316;2023-11-19T11:25:37;3.13;;;2.38;;
10715;SDS011;5409;42.620;23.316;2023-11-19T11:28:16;4.03;;;2.75;;
10715;SDS011;5409;42.620;23.316;2023-11-19T11:31:06;2.90;;;2.35;;
10715;SDS011;5409;42.620;23.316;2023-11-19T11:33:44;2.78;;;2.55;;
10715;SDS011;5409;42.620;23.316;2023-11-19T11:36:28;2.78;;;2.47;;
10715;SDS011;5409;42.620;23.316;2023-11-19T11:38:58;3.75;;;2.88;;
10715;SDS011;5409;42.620;23.316;2023-11-19T11:41:26;3.53;;;2.58;;
10715;SDS011;5409;42.620;23.316;2023-11-19T11:43:53;3.35;;;2.53;;
10715;SDS011;5409;42.620;23.316;2023-11-19T11:49:27;2.55;;;2.10;;
10715;SDS011;5409;42.620;23.316;2023-11-19T11:51:58;2.47;;;2.05;;
10715;SDS011;5409;42.620;23.316;2023-11-19T11:54:28;2.35;;;2.15;;
10715;SDS011;5409;42.620;23.316;2023-11-19T11:57:01;4.10;;;2.83;;
10715;SDS011;5409;42.620;23.316;2023-11-19T11:59:45;3.67;;;2.92;;
10715;SDS011;5409;42.620;23.316;2023-11-19T12:02:13;4.10;;;2.55;;
10715;SDS011;5409;42.620;23.316;2023-11-19T12:04:43;3.22;;;2.10;;
10715;SDS011;5409;42.620;23.316;2023-11-19T12:07:14;2.35;;;2.15;;
10715;SDS011;5409;42.620;23.316;2023-11-19T12:09:45;2.40;;;2.20;;
10715;SDS011;5409;42.620;23.316;2023-11-19T12:12:20;2.80;;;2.33;;
10715;SDS011;5409;42.620;23.316;2023-11-19T12:15:04;2.88;;;2.33;;
10715;SDS011;5409;42.620;23.316;2023-11-19T12:17:42;2.33;;;1.90;;
10715;SDS011;5409;42.620;23.316;2023-11-19T12:20:15;3.35;;;2.50;;
10715;SDS011;5409;42.620;23.316;2023-11-19T12:22:43;2.30;;;2.10;;
10715;SDS011;5409;42.620;23.316;2023-11-19T12:25:12;3.05;;;2.25;;
10715;SDS011;5409;42.620;23.316;2023-11-19T12:27:39;2.10;;;1.90;;
10715;SDS011;5409;42.620;23.316;2023-11-19T12:30:07;2.97;;;1.80;;
10715;SDS011;5409;42.620;23.316;2023-11-19T12:32:38;1.98;;;1.88;;
10715;SDS011;5409;42.620;23.316;2023-11-19T12:35:06;2.30;;;2.00;;
10715;SDS011;5409;42.620;23.316;2023-11-19T12:37:40;4.63;;;2.08;;
10715;SDS011;5409;42.620;23.316;2023-11-19T12:40:16;2.13;;;1.77;;
10715;SDS011;5409;42.620;23.316;2023-11-19T12:42:44;3.28;;;2.45;;
10715;SDS011;5409;42.620;23.316;2023-11-19T12:45:10;3.42;;;2.72;;
10715;SDS011;5409;42.620;23.316;2023-11-19T12:47:38;3.47;;;2.90;;
10715;SDS011;5409;42.620;23.316;2023-11-19T12:50:06;3.83;;;2.80;;
10715;SDS011;5409;42.620;23.316;2023-11-19T12:52:33;3.97;;;3.00;;
10715;SDS011;5409;42.620;23.316;2023-11-19T12:55:02;2.80;;;2.50;;
10715;SDS011;5409;42.620;23.316;2023-11-19T12:57:35;3.42;;;2.70;;
10715;SDS011;5409;42.620;23.316;2023-11-19T13:00:03;4.28;;;2.40;;
10715;SDS011;5409;42.620;23.316;2023-11-19T13:02:47;2.78;;;2.30;;
10715;SDS011;5409;42.620;23.316;2023-11-19T13:08:03;3.25;;;2.58;;
10715;SDS011;5409;42.620;23.316;2023-11-19T13:10:32;2.85;;;1.92;;
10715;SDS011;5409;42.620;23.316;2023-11-19T13:13:03;2.35;;;2.00;;
10715;SDS011;5409;42.620;23.316;2023-11-19T13:15:31;2.25;;;1.98;;
10715;SDS011;5409;42.620;23.316;2023-11-19T13:17:58;2.80;;;2.10;;
10715;SDS011;5409;42.620;23.316;2023-11-19T13:20:25;2.00;;;1.80;;
10715;SDS011;5409;42.620;23.316;2023-11-19T13:22:57;2.40;;;2.10;;
10715;SDS011;5409;42.620;23.316;2023-11-19T13:25:25;2.72;;;1.95;;
10715;SDS011;5409;42.620;23.316;2023-11-19T13:27:53;2.75;;;2.40;;
10715;SDS011;5409;42.620;23.316;2023-11-19T13:30:20;2.60;;;2.10;;
10715;SDS011;5409;42.620;23.316;2023-11-19T13:32:47;2.75;;;2.28;;
10715;SDS011;5409;42.620;23.316;2023-11-19T13:35:14;2.65;;;2.28;;
10715;SDS011;5409;42.620;23.316;2023-11-19T13:37:42;6.18;;;4.43;;
10715;SDS011;5409;42.620;23.316;2023-11-19T13:40:09;4.13;;;3.47;;
10715;SDS011;5409;42.620;23.316;2023-11-19T13:42:39;4.15;;;2.97;;
10715;SDS011;5409;42.620;23.316;2023-11-19T13:45:08;3.47;;;2.88;;
10715;SDS011;5409;42.620;23.316;2023-11-19T13:47:37;3.85;;;3.15;;
10715;SDS011;5409;42.620;23.316;2023-11-19T13:50:06;4.97;;;3.47;;
10715;SDS011;5409;42.620;23.316;2023-11-19T13:52:34;4.55;;;3.05;;
10715;SDS011;5409;42.620;23.316;2023-11-19T13:55:02;5.65;;;3.63;;
10715;SDS011;5409;42.620;23.316;2023-11-19T13:57:30;4.65;;;3.15;;
10715;SDS011;5409;42.620;23.316;2023-11-19T13:59:57;5.95;;;3.55;;
10715;SDS011;5409;42.620;23.316;2023-11-19T14:02:25;8.65;;;4.00;;
10715;SDS011;5409;42.620;23.316;2023-11-19T14:04:52;4.68;;;4.05;;
10715;SDS011;5409;42.620;23.316;2023-11-19T14:07:18;5.07;;;3.60;;
10715;SDS011;5409;42.620;23.316;2023-11-19T14:09:45;4.88;;;3.53;;
10715;SDS011;5409;42.620;23.316;2023-11-19T14:12:12;4.00;;;3.17;;
10715;SDS011;5409;42.620;23.316;2023-11-19T14:14:39;3.92;;;3.00;;
10715;SDS011;5409;42.620;23.316;2023-11-19T14:17:07;4.07;;;2.63;;
10715;SDS011;5409;42.620;23.316;2023-11-19T14:19:35;5.80;;;2.80;;
10715;SDS011;5409;42.620;23.316;2023-11-19T14:22:02;3.53;;;2.70;;
10715;SDS011;5409;42.620;23.316;2023-11-19T14:24:28;2.88;;;2.58;;
10715;SDS011;5409;42.620;23.316;2023-11-19T14:26:55;2.70;;;2.38;;
10715;SDS011;5409;42.620;23.316;2023-11-19T14:29:23;3.58;;;2.55;;
10715;SDS011;5409;42.620;23.316;2023-11-19T14:31:51;2.45;;;2.13;;
10715;SDS011;5409;42.620;23.316;2023-11-19T14:34:17;2.53;;;2.33;;
10715;SDS011;5409;42.620;23.316;2023-11-19T14:36:46;2.45;;;2.10;;
10715;SDS011;5409;42.620;23.316;2023-11-19T14:39:14;2.40;;;2.17;;
10715;SDS011;5409;42.620;23.316;2023-11-19T14:41:41;3.33;;;2.10;;
10715;SDS011;5409;42.620;23.316;2023-11-19T14:44:08;1.92;;;1.80;;
10715;SDS011;5409;42.620;23.316;2023-11-19T14:46:35;1.77;;;1.65;;
10715;SDS011;5409;42.620;23.316;2023-11-19T14:49:02;2.05;;;1.80;;
10715;SDS011;5409;42.620;23.316;2023-11-19T14:51:30;2.17;;;1.95;;
10715;SDS011;5409;42.620;23.316;2023-11-19T14:53:58;2.55;;;2.10;;
10715;SDS011;5409;42.620;23.316;2023-11-19T14:56:24;2.55;;;2.35;;
10715;SDS011;5409;42.620;23.316;2023-11-19T14:58:51;3.35;;;2.35;;